sensor_id;sensor_type;location;lat;lon;timestamp;P1;durP1;ratioP1;P2;durP2;ratioP2
57341;SDS011;43175;51.002;18.316;2023-03-14T00:00:14;14.10;;;5.20;;
57341;SDS011;43175;51.002;18.316;2023-03-14T00:02:40;12.30;;;5.10;;
57341;SDS011;43175;51.002;18.316;2023-03-14T00:05:06;13.60;;;5.20;;
57341;SDS011;43175;51.002;18.316;2023-03-14T00:07:36;12.70;;;5.50;;
57341;SDS011;43175;51.002;18.316;2023-03-14T00:10:12;13.00;;;5.60;;
57341;SDS011;43175;51.002;18.316;2023-03-14T00:12:39;11.60;;;5.10;;
57341;SDS011;43175;51.002;18.316;2023-03-14T00:15:06;12.80;;;5.10;;
57341;SDS011;43175;51.002;18.316;2023-03-14T00:17:33;12.40;;;5.00;;
57341;SDS011;43175;51.002;18.316;2023-03-14T00:19:59;14.10;;;5.20;;
57341;SDS011;43175;51.002;18.316;2023-03-14T00:22:31;14.60;;;5.00;;
57341;SDS011;43175;51.002;18.316;2023-03-14T00:24:57;12.00;;;5.30;;
57341;SDS011;43175;51.002;18.316;2023-03-14T00:27:22;12.30;;;5.30;;
57341;SDS011;43175;51.002;18.316;2023-03-14T00:29:48;13.00;;;5.10;;
57341;SDS011;43175;51.002;18.316;2023-03-14T00:32:14;12.60;;;4.70;;
57341;SDS011;43175;51.002;18.316;2023-03-14T00:34:39;11.50;;;4.70;;
57341;SDS011;43175;51.002;18.316;2023-03-14T00:37:05;11.00;;;4.60;;
57341;SDS011;43175;51.002;18.316;2023-03-14T00:39:31;12.00;;;4.60;;
57341;SDS011;43175;51.002;18.316;2023-03-14T00:41:56;12.10;;;4.80;;
57341;SDS011;43175;51.002;18.316;2023-03-14T00:44:22;12.40;;;4.70;;
57341;SDS011;43175;51.002;18.316;2023-03-14T00:46:47;12.70;;;4.70;;
57341;SDS011;43175;51.002;18.316;2023-03-14T00:49:13;12.10;;;5.00;;
57341;SDS011;43175;51.002;18.316;2023-03-14T00:51:38;13.10;;;4.90;;
57341;SDS011;43175;51.002;18.316;2023-03-14T00:54:04;13.20;;;5.10;;
57341;SDS011;43175;51.002;18.316;2023-03-14T00:56:30;13.20;;;4.90;;
57341;SDS011;43175;51.002;18.316;2023-03-14T00:58:56;10.90;;;4.60;;
57341;SDS011;43175;51.002;18.316;2023-03-14T01:01:22;11.70;;;4.70;;
57341;SDS011;43175;51.002;18.316;2023-03-14T01:03:52;12.00;;;4.70;;
57341;SDS011;43175;51.002;18.316;2023-03-14T01:06:20;13.50;;;5.10;;
57341;SDS011;43175;51.002;18.316;2023-03-14T01:08:47;13.20;;;4.70;;
57341;SDS011;43175;51.002;18.316;2023-03-14T01:11:20;11.70;;;4.70;;
57341;SDS011;43175;51.002;18.316;2023-03-14T01:13:50;13.20;;;5.20;;
57341;SDS011;43175;51.002;18.316;2023-03-14T01:16:16;13.80;;;4.80;;
57341;SDS011;43175;51.002;18.316;2023-03-14T01:18:43;12.30;;;4.60;;
57341;SDS011;43175;51.002;18.316;2023-03-14T01:21:14;13.60;;;4.80;;
57341;SDS011;43175;51.002;18.316;2023-03-14T01:23:41;11.80;;;4.60;;
57341;SDS011;43175;51.002;18.316;2023-03-14T01:26:14;11.30;;;4.90;;
57341;SDS011;43175;51.002;18.316;2023-03-14T01:28:41;11.80;;;4.90;;
57341;SDS011;43175;51.002;18.316;2023-03-14T01:31:08;12.10;;;5.00;;
57341;SDS011;43175;51.002;18.316;2023-03-14T01:33:34;12.30;;;5.20;;
57341;SDS011;43175;51.002;18.316;2023-03-14T01:36:00;12.50;;;5.60;;
57341;SDS011;43175;51.002;18.316;2023-03-14T01:38:30;16.80;;;7.70;;
57341;SDS011;43175;51.002;18.316;2023-03-14T01:40:57;15.10;;;5.30;;
57341;SDS011;43175;51.002;18.316;2023-03-14T01:43:23;12.80;;;5.20;;
57341;SDS011;43175;51.002;18.316;2023-03-14T01:46:02;11.70;;;4.90;;
57341;SDS011;43175;51.002;18.316;2023-03-14T01:59:33;12.70;;;4.90;;
57341;SDS011;43175;51.002;18.316;2023-03-14T02:01:59;13.30;;;5.10;;
57341;SDS011;43175;51.002;18.316;2023-03-14T02:04:27;12.30;;;5.10;;
57341;SDS011;43175;51.002;18.316;2023-03-14T02:07:03;11.60;;;4.80;;
57341;SDS011;43175;51.002;18.316;2023-03-14T02:09:33;12.60;;;4.70;;
57341;SDS011;43175;51.002;18.316;2023-03-14T02:11:59;12.00;;;5.30;;
57341;SDS011;43175;51.002;18.316;2023-03-14T02:14:28;12.70;;;4.80;;
57341;SDS011;43175;51.002;18.316;2023-03-14T02:16:56;12.50;;;5.10;;
57341;SDS011;43175;51.002;18.316;2023-03-14T02:19:25;13.20;;;5.60;;
57341;SDS011;43175;51.002;18.316;2023-03-14T02:21:58;14.70;;;5.70;;
57341;SDS011;43175;51.002;18.316;2023-03-14T02:27:24;12.70;;;5.40;;
57341;SDS011;43175;51.002;18.316;2023-03-14T02:29:54;16.40;;;5.50;;
57341;SDS011;43175;51.002;18.316;2023-03-14T02:32:23;12.20;;;5.10;;
57341;SDS011;43175;51.002;18.316;2023-03-14T02:34:51;12.30;;;5.10;;
57341;SDS011;43175;51.002;18.316;2023-03-14T02:37:19;12.60;;;5.20;;
57341;SDS011;43175;51.002;18.316;2023-03-14T02:39:46;14.40;;;5.80;;
57341;SDS011;43175;51.002;18.316;2023-03-14T02:42:14;12.90;;;5.50;;
57341;SDS011;43175;51.002;18.316;2023-03-14T02:44:50;14.10;;;5.80;;
57341;SDS011;43175;51.002;18.316;2023-03-14T02:47:22;12.20;;;5.40;;
57341;SDS011;43175;51.002;18.316;2023-03-14T02:49:56;12.40;;;5.50;;
57341;SDS011;43175;51.002;18.316;2023-03-14T02:54:52;13.40;;;5.40;;
57341;SDS011;43175;51.002;18.316;2023-03-14T02:57:17;13.40;;;5.20;;
57341;SDS011;43175;51.002;18.316;2023-03-14T02:59:42;12.90;;;5.40;;
57341;SDS011;43175;51.002;18.316;2023-03-14T03:02:08;12.90;;;5.30;;
57341;SDS011;43175;51.002;18.316;2023-03-14T03:04:34;13.40;;;5.20;;
57341;SDS011;43175;51.002;18.316;2023-03-14T03:06:59;12.00;;;5.20;;
57341;SDS011;43175;51.002;18.316;2023-03-14T03:09:24;11.90;;;5.40;;
57341;SDS011;43175;51.002;18.316;2023-03-14T03:11:50;12.80;;;5.00;;
57341;SDS011;43175;51.002;18.316;2023-03-14T03:14:16;13.60;;;5.40;;
57341;SDS011;43175;51.002;18.316;2023-03-14T03:16:41;12.30;;;5.30;;
57341;SDS011;43175;51.002;18.316;2023-03-14T03:19:06;13.10;;;5.50;;
57341;SDS011;43175;51.002;18.316;2023-03-14T03:21:32;12.70;;;5.20;;
57341;SDS011;43175;51.002;18.316;2023-03-14T03:23:57;11.50;;;5.20;;
57341;SDS011;43175;51.002;18.316;2023-03-14T03:26:23;10.80;;;4.80;;
57341;SDS011;43175;51.002;18.316;2023-03-14T03:28:50;12.20;;;5.00;;
57341;SDS011;43175;51.002;18.316;2023-03-14T03:31:17;12.90;;;4.90;;
57341;SDS011;43175;51.002;18.316;2023-03-14T03:33:43;11.80;;;5.00;;
57341;SDS011;43175;51.002;18.316;2023-03-14T03:36:08;11.20;;;4.80;;
57341;SDS011;43175;51.002;18.316;2023-03-14T03:38:34;12.20;;;4.80;;
57341;SDS011;43175;51.002;18.316;2023-03-14T03:41:07;11.50;;;5.10;;
57341;SDS011;43175;51.002;18.316;2023-03-14T03:43:33;11.50;;;4.60;;
57341;SDS011;43175;51.002;18.316;2023-03-14T03:46:02;14.90;;;5.10;;
57341;SDS011;43175;51.002;18.316;2023-03-14T03:48:28;12.10;;;5.10;;
57341;SDS011;43175;51.002;18.316;2023-03-14T03:50:54;12.70;;;5.00;;
57341;SDS011;43175;51.002;18.316;2023-03-14T03:53:19;12.40;;;5.10;;
57341;SDS011;43175;51.002;18.316;2023-03-14T03:55:45;14.90;;;5.30;;
57341;SDS011;43175;51.002;18.316;2023-03-14T03:58:11;12.00;;;4.50;;
57341;SDS011;43175;51.002;18.316;2023-03-14T04:00:36;11.10;;;4.70;;
57341;SDS011;43175;51.002;18.316;2023-03-14T04:03:02;11.90;;;4.60;;
57341;SDS011;43175;51.002;18.316;2023-03-14T04:05:27;12.40;;;4.70;;
57341;SDS011;43175;51.002;18.316;2023-03-14T04:07:52;11.60;;;4.60;;
57341;SDS011;43175;51.002;18.316;2023-03-14T04:10:18;11.10;;;4.10;;
57341;SDS011;43175;51.002;18.316;2023-03-14T04:12:43;13.10;;;4.90;;
57341;SDS011;43175;51.002;18.316;2023-03-14T04:15:09;13.00;;;4.90;;
57341;SDS011;43175;51.002;18.316;2023-03-14T04:17:35;11.60;;;5.30;;
57341;SDS011;43175;51.002;18.316;2023-03-14T04:20:00;11.70;;;4.50;;
57341;SDS011;43175;51.002;18.316;2023-03-14T04:22:26;12.70;;;4.80;;
57341;SDS011;43175;51.002;18.316;2023-03-14T04:24:51;12.10;;;5.00;;
57341;SDS011;43175;51.002;18.316;2023-03-14T04:27:17;11.70;;;4.90;;
57341;SDS011;43175;51.002;18.316;2023-03-14T04:29:42;10.80;;;4.60;;
57341;SDS011;43175;51.002;18.316;2023-03-14T04:32:08;13.80;;;5.20;;
57341;SDS011;43175;51.002;18.316;2023-03-14T04:34:33;11.30;;;4.70;;
57341;SDS011;43175;51.002;18.316;2023-03-14T04:36:58;11.80;;;5.00;;
57341;SDS011;43175;51.002;18.316;2023-03-14T04:39:24;11.30;;;5.10;;
57341;SDS011;43175;51.002;18.316;2023-03-14T04:41:50;11.50;;;5.00;;
57341;SDS011;43175;51.002;18.316;2023-03-14T04:44:15;12.20;;;4.70;;
57341;SDS011;43175;51.002;18.316;2023-03-14T04:46:40;12.10;;;4.90;;
57341;SDS011;43175;51.002;18.316;2023-03-14T04:49:06;13.30;;;4.90;;
57341;SDS011;43175;51.002;18.316;2023-03-14T04:51:31;11.00;;;4.50;;
57341;SDS011;43175;51.002;18.316;2023-03-14T04:53:57;11.00;;;5.00;;
57341;SDS011;43175;51.002;18.316;2023-03-14T04:56:22;11.70;;;4.90;;
57341;SDS011;43175;51.002;18.316;2023-03-14T04:58:48;12.20;;;4.90;;
57341;SDS011;43175;51.002;18.316;2023-03-14T05:01:13;13.20;;;5.40;;
57341;SDS011;43175;51.002;18.316;2023-03-14T05:03:38;12.10;;;5.20;;
57341;SDS011;43175;51.002;18.316;2023-03-14T05:06:04;11.60;;;5.00;;
57341;SDS011;43175;51.002;18.316;2023-03-14T05:08:30;12.70;;;4.60;;
57341;SDS011;43175;51.002;18.316;2023-03-14T05:10:56;10.80;;;4.40;;
57341;SDS011;43175;51.002;18.316;2023-03-14T05:13:22;13.10;;;4.80;;
57341;SDS011;43175;51.002;18.316;2023-03-14T05:15:48;11.30;;;4.40;;
57341;SDS011;43175;51.002;18.316;2023-03-14T05:18:15;11.50;;;4.60;;
57341;SDS011;43175;51.002;18.316;2023-03-14T05:20:41;11.20;;;4.20;;
57341;SDS011;43175;51.002;18.316;2023-03-14T05:23:09;11.80;;;4.60;;
57341;SDS011;43175;51.002;18.316;2023-03-14T05:25:35;14.40;;;4.40;;
57341;SDS011;43175;51.002;18.316;2023-03-14T05:28:00;11.50;;;4.50;;
57341;SDS011;43175;51.002;18.316;2023-03-14T05:30:26;11.40;;;4.60;;
57341;SDS011;43175;51.002;18.316;2023-03-14T05:32:53;11.60;;;4.20;;
57341;SDS011;43175;51.002;18.316;2023-03-14T05:35:18;11.10;;;4.80;;
57341;SDS011;43175;51.002;18.316;2023-03-14T05:37:44;11.40;;;4.50;;
57341;SDS011;43175;51.002;18.316;2023-03-14T05:40:10;11.00;;;4.30;;
57341;SDS011;43175;51.002;18.316;2023-03-14T05:42:36;10.90;;;4.20;;
57341;SDS011;43175;51.002;18.316;2023-03-14T05:45:02;14.70;;;5.30;;
57341;SDS011;43175;51.002;18.316;2023-03-14T05:47:27;11.30;;;4.60;;
57341;SDS011;43175;51.002;18.316;2023-03-14T05:49:53;12.80;;;4.50;;
57341;SDS011;43175;51.002;18.316;2023-03-14T05:52:18;10.70;;;4.10;;
57341;SDS011;43175;51.002;18.316;2023-03-14T05:54:44;12.40;;;4.90;;
57341;SDS011;43175;51.002;18.316;2023-03-14T05:57:09;11.50;;;4.80;;
57341;SDS011;43175;51.002;18.316;2023-03-14T05:59:34;12.80;;;4.50;;
57341;SDS011;43175;51.002;18.316;2023-03-14T06:02:00;11.70;;;4.70;;
57341;SDS011;43175;51.002;18.316;2023-03-14T06:04:25;13.20;;;5.20;;
57341;SDS011;43175;51.002;18.316;2023-03-14T06:06:51;13.90;;;5.20;;
57341;SDS011;43175;51.002;18.316;2023-03-14T06:09:17;12.50;;;4.90;;
57341;SDS011;43175;51.002;18.316;2023-03-14T06:11:45;12.40;;;4.90;;
57341;SDS011;43175;51.002;18.316;2023-03-14T06:14:11;13.10;;;4.70;;
57341;SDS011;43175;51.002;18.316;2023-03-14T06:16:37;12.70;;;4.60;;
57341;SDS011;43175;51.002;18.316;2023-03-14T06:19:02;12.00;;;4.70;;
57341;SDS011;43175;51.002;18.316;2023-03-14T06:21:28;11.00;;;4.50;;
57341;SDS011;43175;51.002;18.316;2023-03-14T06:23:53;11.90;;;4.90;;
57341;SDS011;43175;51.002;18.316;2023-03-14T06:26:19;11.00;;;4.40;;
57341;SDS011;43175;51.002;18.316;2023-03-14T06:28:44;12.70;;;5.10;;
57341;SDS011;43175;51.002;18.316;2023-03-14T06:31:10;11.30;;;4.60;;
57341;SDS011;43175;51.002;18.316;2023-03-14T06:33:35;13.50;;;4.90;;
57341;SDS011;43175;51.002;18.316;2023-03-14T06:36:01;12.50;;;4.50;;
57341;SDS011;43175;51.002;18.316;2023-03-14T06:38:26;11.60;;;4.70;;
57341;SDS011;43175;51.002;18.316;2023-03-14T06:40:52;11.10;;;4.80;;
57341;SDS011;43175;51.002;18.316;2023-03-14T06:43:17;12.10;;;4.70;;
57341;SDS011;43175;51.002;18.316;2023-03-14T06:45:43;13.20;;;5.10;;
57341;SDS011;43175;51.002;18.316;2023-03-14T06:48:08;13.10;;;5.00;;
57341;SDS011;43175;51.002;18.316;2023-03-14T06:50:34;10.90;;;4.10;;
57341;SDS011;43175;51.002;18.316;2023-03-14T06:53:00;12.20;;;4.90;;
57341;SDS011;43175;51.002;18.316;2023-03-14T06:55:25;13.90;;;4.80;;
57341;SDS011;43175;51.002;18.316;2023-03-14T06:57:51;11.30;;;4.70;;
57341;SDS011;43175;51.002;18.316;2023-03-14T07:00:16;11.80;;;5.00;;
57341;SDS011;43175;51.002;18.316;2023-03-14T07:02:42;13.10;;;5.00;;
57341;SDS011;43175;51.002;18.316;2023-03-14T07:05:08;13.30;;;4.90;;
57341;SDS011;43175;51.002;18.316;2023-03-14T07:07:35;12.60;;;4.90;;
57341;SDS011;43175;51.002;18.316;2023-03-14T07:10:01;14.40;;;5.00;;
57341;SDS011;43175;51.002;18.316;2023-03-14T07:12:26;14.40;;;5.50;;
57341;SDS011;43175;51.002;18.316;2023-03-14T07:14:52;12.00;;;4.90;;
57341;SDS011;43175;51.002;18.316;2023-03-14T07:17:17;13.20;;;4.80;;
57341;SDS011;43175;51.002;18.316;2023-03-14T07:19:43;12.60;;;5.80;;
57341;SDS011;43175;51.002;18.316;2023-03-14T07:22:08;13.60;;;7.20;;
57341;SDS011;43175;51.002;18.316;2023-03-14T07:24:34;19.70;;;8.40;;
57341;SDS011;43175;51.002;18.316;2023-03-14T07:27:00;13.30;;;6.40;;
57341;SDS011;43175;51.002;18.316;2023-03-14T07:29:25;13.00;;;6.10;;
57341;SDS011;43175;51.002;18.316;2023-03-14T07:31:51;12.90;;;5.20;;
57341;SDS011;43175;51.002;18.316;2023-03-14T07:34:16;12.80;;;5.10;;
57341;SDS011;43175;51.002;18.316;2023-03-14T07:36:41;13.80;;;4.90;;
57341;SDS011;43175;51.002;18.316;2023-03-14T07:39:07;13.50;;;5.00;;
57341;SDS011;43175;51.002;18.316;2023-03-14T07:41:33;13.20;;;5.20;;
57341;SDS011;43175;51.002;18.316;2023-03-14T07:43:58;12.00;;;4.80;;
57341;SDS011;43175;51.002;18.316;2023-03-14T07:46:24;11.40;;;4.80;;
57341;SDS011;43175;51.002;18.316;2023-03-14T07:48:49;13.50;;;5.70;;
57341;SDS011;43175;51.002;18.316;2023-03-14T07:51:15;11.90;;;5.60;;
57341;SDS011;43175;51.002;18.316;2023-03-14T07:53:40;15.30;;;5.70;;
57341;SDS011;43175;51.002;18.316;2023-03-14T07:56:08;13.30;;;5.30;;
57341;SDS011;43175;51.002;18.316;2023-03-14T07:58:34;13.10;;;5.00;;
57341;SDS011;43175;51.002;18.316;2023-03-14T08:00:59;12.00;;;5.20;;
57341;SDS011;43175;51.002;18.316;2023-03-14T08:03:25;14.70;;;5.50;;
57341;SDS011;43175;51.002;18.316;2023-03-14T08:05:50;12.00;;;5.60;;
57341;SDS011;43175;51.002;18.316;2023-03-14T08:08:17;13.30;;;5.60;;
57341;SDS011;43175;51.002;18.316;2023-03-14T08:10:43;12.30;;;5.40;;
57341;SDS011;43175;51.002;18.316;2023-03-14T08:13:09;16.10;;;5.80;;
57341;SDS011;43175;51.002;18.316;2023-03-14T08:15:35;13.20;;;5.40;;
57341;SDS011;43175;51.002;18.316;2023-03-14T08:18:02;13.50;;;5.60;;
57341;SDS011;43175;51.002;18.316;2023-03-14T08:20:29;13.80;;;5.40;;
57341;SDS011;43175;51.002;18.316;2023-03-14T08:22:58;14.90;;;5.70;;
57341;SDS011;43175;51.002;18.316;2023-03-14T08:25:25;13.40;;;5.60;;
57341;SDS011;43175;51.002;18.316;2023-03-14T08:27:51;13.00;;;5.90;;
57341;SDS011;43175;51.002;18.316;2023-03-14T08:30:17;14.20;;;5.50;;
57341;SDS011;43175;51.002;18.316;2023-03-14T08:32:44;13.90;;;5.10;;
57341;SDS011;43175;51.002;18.316;2023-03-14T08:35:10;13.70;;;5.60;;
57341;SDS011;43175;51.002;18.316;2023-03-14T08:37:36;13.30;;;5.60;;
57341;SDS011;43175;51.002;18.316;2023-03-14T08:40:02;14.80;;;5.90;;
57341;SDS011;43175;51.002;18.316;2023-03-14T08:42:33;12.50;;;5.70;;
57341;SDS011;43175;51.002;18.316;2023-03-14T08:45:00;14.60;;;5.80;;
57341;SDS011;43175;51.002;18.316;2023-03-14T08:47:25;14.00;;;5.50;;
57341;SDS011;43175;51.002;18.316;2023-03-14T08:49:51;13.90;;;5.50;;
57341;SDS011;43175;51.002;18.316;2023-03-14T08:52:16;13.60;;;6.30;;
57341;SDS011;43175;51.002;18.316;2023-03-14T08:54:45;14.90;;;6.00;;
57341;SDS011;43175;51.002;18.316;2023-03-14T08:57:11;12.50;;;5.70;;
57341;SDS011;43175;51.002;18.316;2023-03-14T08:59:37;14.40;;;5.90;;
57341;SDS011;43175;51.002;18.316;2023-03-14T09:02:02;14.30;;;5.30;;
57341;SDS011;43175;51.002;18.316;2023-03-14T09:04:32;11.50;;;5.10;;
57341;SDS011;43175;51.002;18.316;2023-03-14T09:06:58;12.60;;;5.30;;
57341;SDS011;43175;51.002;18.316;2023-03-14T09:09:25;13.20;;;5.30;;
57341;SDS011;43175;51.002;18.316;2023-03-14T09:11:52;13.70;;;5.30;;
57341;SDS011;43175;51.002;18.316;2023-03-14T09:14:18;14.10;;;5.80;;
57341;SDS011;43175;51.002;18.316;2023-03-14T09:16:44;13.70;;;5.50;;
57341;SDS011;43175;51.002;18.316;2023-03-14T09:19:09;12.00;;;5.50;;
57341;SDS011;43175;51.002;18.316;2023-03-14T09:21:35;11.60;;;5.50;;
57341;SDS011;43175;51.002;18.316;2023-03-14T09:24:01;13.60;;;5.90;;
57341;SDS011;43175;51.002;18.316;2023-03-14T09:26:27;13.20;;;5.70;;
57341;SDS011;43175;51.002;18.316;2023-03-14T09:28:52;13.30;;;5.50;;
57341;SDS011;43175;51.002;18.316;2023-03-14T09:31:18;12.90;;;6.20;;
57341;SDS011;43175;51.002;18.316;2023-03-14T09:33:43;14.70;;;6.10;;
57341;SDS011;43175;51.002;18.316;2023-03-14T09:36:10;14.40;;;5.60;;
57341;SDS011;43175;51.002;18.316;2023-03-14T09:38:36;13.80;;;5.30;;
57341;SDS011;43175;51.002;18.316;2023-03-14T09:41:03;12.20;;;5.60;;
57341;SDS011;43175;51.002;18.316;2023-03-14T09:43:38;12.80;;;5.50;;
57341;SDS011;43175;51.002;18.316;2023-03-14T09:46:05;13.40;;;5.50;;
57341;SDS011;43175;51.002;18.316;2023-03-14T09:48:32;13.30;;;6.00;;
57341;SDS011;43175;51.002;18.316;2023-03-14T09:50:59;14.90;;;6.00;;
57341;SDS011;43175;51.002;18.316;2023-03-14T09:53:34;13.80;;;6.10;;
57341;SDS011;43175;51.002;18.316;2023-03-14T09:58:43;13.60;;;6.00;;
57341;SDS011;43175;51.002;18.316;2023-03-14T10:01:11;13.20;;;5.50;;
57341;SDS011;43175;51.002;18.316;2023-03-14T10:03:39;15.10;;;6.80;;
57341;SDS011;43175;51.002;18.316;2023-03-14T10:06:13;19.80;;;9.00;;
57341;SDS011;43175;51.002;18.316;2023-03-14T10:08:42;19.10;;;10.00;;
57341;SDS011;43175;51.002;18.316;2023-03-14T10:11:14;19.90;;;9.60;;
57341;SDS011;43175;51.002;18.316;2023-03-14T10:16:32;14.20;;;7.10;;
57341;SDS011;43175;51.002;18.316;2023-03-14T10:19:04;16.70;;;7.80;;
57341;SDS011;43175;51.002;18.316;2023-03-14T10:21:44;18.00;;;8.10;;
57341;SDS011;43175;51.002;18.316;2023-03-14T10:24:19;15.80;;;7.80;;
57341;SDS011;43175;51.002;18.316;2023-03-14T10:26:51;14.90;;;7.60;;
57341;SDS011;43175;51.002;18.316;2023-03-14T10:29:18;15.50;;;7.20;;
57341;SDS011;43175;51.002;18.316;2023-03-14T10:31:59;14.40;;;6.90;;
57341;SDS011;43175;51.002;18.316;2023-03-14T10:34:30;17.10;;;9.30;;
57341;SDS011;43175;51.002;18.316;2023-03-14T10:36:59;17.10;;;8.20;;
57341;SDS011;43175;51.002;18.316;2023-03-14T10:39:34;17.30;;;8.10;;
57341;SDS011;43175;51.002;18.316;2023-03-14T10:42:22;15.80;;;7.90;;
57341;SDS011;43175;51.002;18.316;2023-03-14T10:44:53;16.00;;;7.70;;
57341;SDS011;43175;51.002;18.316;2023-03-14T10:47:22;15.30;;;6.80;;
57341;SDS011;43175;51.002;18.316;2023-03-14T10:49:49;14.40;;;7.00;;
57341;SDS011;43175;51.002;18.316;2023-03-14T10:52:19;15.40;;;7.50;;
57341;SDS011;43175;51.002;18.316;2023-03-14T10:54:54;15.70;;;7.40;;
57341;SDS011;43175;51.002;18.316;2023-03-14T10:57:23;16.50;;;7.80;;
57341;SDS011;43175;51.002;18.316;2023-03-14T10:59:49;16.80;;;8.20;;
57341;SDS011;43175;51.002;18.316;2023-03-14T11:05:03;14.10;;;7.40;;
57341;SDS011;43175;51.002;18.316;2023-03-14T11:07:40;15.20;;;7.10;;
57341;SDS011;43175;51.002;18.316;2023-03-14T11:12:44;15.40;;;7.80;;
57341;SDS011;43175;51.002;18.316;2023-03-14T11:15:34;14.90;;;8.00;;
57341;SDS011;43175;51.002;18.316;2023-03-14T11:20:59;16.10;;;8.20;;
57341;SDS011;43175;51.002;18.316;2023-03-14T11:26:37;17.50;;;8.70;;
57341;SDS011;43175;51.002;18.316;2023-03-14T11:31:45;17.00;;;8.30;;
57341;SDS011;43175;51.002;18.316;2023-03-14T11:36:59;15.00;;;8.10;;
57341;SDS011;43175;51.002;18.316;2023-03-14T11:39:32;16.30;;;8.20;;
57341;SDS011;43175;51.002;18.316;2023-03-14T11:42:03;15.40;;;8.00;;
57341;SDS011;43175;51.002;18.316;2023-03-14T11:44:32;15.20;;;7.80;;
57341;SDS011;43175;51.002;18.316;2023-03-14T11:47:02;14.60;;;7.70;;
57341;SDS011;43175;51.002;18.316;2023-03-14T11:49:51;16.60;;;8.70;;
57341;SDS011;43175;51.002;18.316;2023-03-14T11:52:50;16.40;;;8.00;;
57341;SDS011;43175;51.002;18.316;2023-03-14T11:55:21;13.00;;;7.40;;
57341;SDS011;43175;51.002;18.316;2023-03-14T11:57:51;15.10;;;7.50;;
57341;SDS011;43175;51.002;18.316;2023-03-14T12:00:19;15.90;;;8.00;;
57341;SDS011;43175;51.002;18.316;2023-03-14T12:13:15;18.90;;;9.30;;
57341;SDS011;43175;51.002;18.316;2023-03-14T12:18:38;18.10;;;10.30;;
57341;SDS011;43175;51.002;18.316;2023-03-14T12:23:35;16.80;;;9.40;;
57341;SDS011;43175;51.002;18.316;2023-03-14T12:26:22;18.40;;;9.70;;
57341;SDS011;43175;51.002;18.316;2023-03-14T12:28:52;20.80;;;10.00;;
57341;SDS011;43175;51.002;18.316;2023-03-14T12:31:35;17.10;;;9.40;;
57341;SDS011;43175;51.002;18.316;2023-03-14T12:39:35;17.20;;;9.40;;
57341;SDS011;43175;51.002;18.316;2023-03-14T12:45:13;20.00;;;9.60;;
57341;SDS011;43175;51.002;18.316;2023-03-14T12:47:52;18.20;;;8.90;;
57341;SDS011;43175;51.002;18.316;2023-03-14T12:53:19;19.70;;;9.40;;
57341;SDS011;43175;51.002;18.316;2023-03-14T12:56:04;18.90;;;8.90;;
57341;SDS011;43175;51.002;18.316;2023-03-14T12:58:44;16.90;;;9.30;;
57341;SDS011;43175;51.002;18.316;2023-03-14T13:01:17;20.90;;;9.60;;
57341;SDS011;43175;51.002;18.316;2023-03-14T13:03:45;16.30;;;8.60;;
57341;SDS011;43175;51.002;18.316;2023-03-14T13:06:12;17.80;;;9.70;;
57341;SDS011;43175;51.002;18.316;2023-03-14T13:08:42;19.60;;;9.40;;
57341;SDS011;43175;51.002;18.316;2023-03-14T13:11:10;18.30;;;8.80;;
57341;SDS011;43175;51.002;18.316;2023-03-14T13:13:41;20.00;;;8.70;;
57341;SDS011;43175;51.002;18.316;2023-03-14T13:18:38;18.10;;;8.80;;
57341;SDS011;43175;51.002;18.316;2023-03-14T13:21:13;22.50;;;9.60;;
57341;SDS011;43175;51.002;18.316;2023-03-14T13:23:53;16.70;;;9.10;;
57341;SDS011;43175;51.002;18.316;2023-03-14T13:26:37;19.50;;;9.60;;
57341;SDS011;43175;51.002;18.316;2023-03-14T13:29:19;16.50;;;9.00;;
57341;SDS011;43175;51.002;18.316;2023-03-14T13:31:50;18.00;;;10.00;;
57341;SDS011;43175;51.002;18.316;2023-03-14T13:34:17;19.90;;;9.90;;
57341;SDS011;43175;51.002;18.316;2023-03-14T13:36:43;19.70;;;9.90;;
57341;SDS011;43175;51.002;18.316;2023-03-14T13:39:22;17.90;;;10.00;;
57341;SDS011;43175;51.002;18.316;2023-03-14T13:41:53;16.30;;;9.30;;
57341;SDS011;43175;51.002;18.316;2023-03-14T13:44:25;16.80;;;9.50;;
57341;SDS011;43175;51.002;18.316;2023-03-14T13:46:57;18.00;;;9.50;;
57341;SDS011;43175;51.002;18.316;2023-03-14T13:49:26;18.50;;;9.60;;
57341;SDS011;43175;51.002;18.316;2023-03-14T13:51:54;18.50;;;9.90;;
57341;SDS011;43175;51.002;18.316;2023-03-14T13:54:21;15.20;;;8.80;;
57341;SDS011;43175;51.002;18.316;2023-03-14T13:56:48;16.70;;;9.10;;
57341;SDS011;43175;51.002;18.316;2023-03-14T13:59:23;15.40;;;8.80;;
57341;SDS011;43175;51.002;18.316;2023-03-14T14:01:50;18.50;;;10.00;;
57341;SDS011;43175;51.002;18.316;2023-03-14T14:04:18;17.70;;;9.40;;
57341;SDS011;43175;51.002;18.316;2023-03-14T14:06:47;18.60;;;9.50;;
57341;SDS011;43175;51.002;18.316;2023-03-14T14:09:16;19.40;;;9.80;;
57341;SDS011;43175;51.002;18.316;2023-03-14T14:11:55;17.10;;;9.20;;
57341;SDS011;43175;51.002;18.316;2023-03-14T14:14:30;17.90;;;9.40;;
57341;SDS011;43175;51.002;18.316;2023-03-14T14:16:58;18.80;;;9.70;;
57341;SDS011;43175;51.002;18.316;2023-03-14T14:19:25;20.20;;;9.60;;
57341;SDS011;43175;51.002;18.316;2023-03-14T14:21:53;18.20;;;9.30;;
57341;SDS011;43175;51.002;18.316;2023-03-14T14:24:19;18.40;;;9.30;;
57341;SDS011;43175;51.002;18.316;2023-03-14T14:26:47;19.10;;;9.60;;
57341;SDS011;43175;51.002;18.316;2023-03-14T14:29:27;21.20;;;10.20;;
57341;SDS011;43175;51.002;18.316;2023-03-14T14:32:01;17.00;;;9.40;;
57341;SDS011;43175;51.002;18.316;2023-03-14T14:37:32;19.60;;;10.00;;
57341;SDS011;43175;51.002;18.316;2023-03-14T14:40:07;16.50;;;8.90;;
57341;SDS011;43175;51.002;18.316;2023-03-14T14:42:47;17.90;;;9.40;;
57341;SDS011;43175;51.002;18.316;2023-03-14T14:45:18;18.80;;;9.20;;
57341;SDS011;43175;51.002;18.316;2023-03-14T14:47:52;19.70;;;9.90;;
57341;SDS011;43175;51.002;18.316;2023-03-14T14:50:26;15.80;;;8.80;;
57341;SDS011;43175;51.002;18.316;2023-03-14T14:52:55;26.50;;;13.10;;
57341;SDS011;43175;51.002;18.316;2023-03-14T14:55:22;18.60;;;9.90;;
57341;SDS011;43175;51.002;18.316;2023-03-14T14:57:49;16.80;;;9.00;;
57341;SDS011;43175;51.002;18.316;2023-03-14T15:00:20;17.50;;;9.60;;
57341;SDS011;43175;51.002;18.316;2023-03-14T15:02:50;17.50;;;8.90;;
57341;SDS011;43175;51.002;18.316;2023-03-14T15:05:21;16.60;;;9.30;;
57341;SDS011;43175;51.002;18.316;2023-03-14T15:07:48;17.90;;;9.40;;
57341;SDS011;43175;51.002;18.316;2023-03-14T15:10:18;17.80;;;10.30;;
57341;SDS011;43175;51.002;18.316;2023-03-14T15:12:45;20.20;;;10.60;;
57341;SDS011;43175;51.002;18.316;2023-03-14T15:15:13;18.60;;;11.60;;
57341;SDS011;43175;51.002;18.316;2023-03-14T15:17:38;19.10;;;10.70;;
57341;SDS011;43175;51.002;18.316;2023-03-14T15:20:05;18.40;;;10.10;;
57341;SDS011;43175;51.002;18.316;2023-03-14T15:22:31;18.30;;;10.20;;
57341;SDS011;43175;51.002;18.316;2023-03-14T15:24:57;17.20;;;9.20;;
57341;SDS011;43175;51.002;18.316;2023-03-14T15:27:22;18.00;;;9.90;;
57341;SDS011;43175;51.002;18.316;2023-03-14T15:29:48;18.20;;;10.10;;
57341;SDS011;43175;51.002;18.316;2023-03-14T15:32:15;17.80;;;10.70;;
57341;SDS011;43175;51.002;18.316;2023-03-14T15:34:42;18.40;;;10.70;;
57341;SDS011;43175;51.002;18.316;2023-03-14T15:37:10;18.20;;;10.10;;